Flight Information

DEPARTURE
SANTA BARBARA, CA
Elevation:
13
Runways:
15L/33R - 4180x75 - ASPH-G
15R/33L - 4184x100 - ASPH-G
7/25 - 6052x150 - ASPH-G
ATIS:
132.65
Clearance Delivery:
132.9
Ground:
121.7
Tower:
119.7
DESTINATION
,
Elevation:
TPA:
1000 (est.)


6853.7 NM72° True-14° Var58° HDG

Flight Plan:
(click to file on line)

1. Type
2. Aircraft Identification
3. Aircraft Type / Special Equipment
4. True Airspeed
kts
5. Departure Airport
(ICAO code)
6. Arriving Airport
(ICAO code)
7. Cruising Altitude
ft
8. Alternate Airport
(ICAO code)
9. Route of Flight
10. Remarks


00:00:00 Departure ATIS: Destination ATIS:

Clearance Limit:
Route:
Altitude: Expect in minutes
Frequency:
Transponder: (7500 Hijack / 7600 Lost Comms / 7700 Emergency)


KSBA 211553Z VRB03KT 3SM BR OVC003 18/16 A3007 RMK AO2 SLP181 T01780161 $
Time: 2021-09-21T15:53:00Z
1632241123
Winds: variable
Visibility: 3.0 sm
Clouds (AGL): OVC 300
Temperature: 17.8 C
Dew Point: 16.1 C
Pressure: 30.070866 in Hgbr


Notes:

Data extracted from FAA Digital Chart Supplement. Effective: 0901Z Thursday, AUG 12, 2021 to 0901Z Thursday, OCT 7, 2021
Current ATIS data is provided courtisy of PilotEdge.